createdAt,value
2022-09-20T00:01:35.809Z,82.92
2022-09-20T00:04:06.986Z,83.06
2022-09-20T00:06:36.897Z,81.35
2022-09-20T00:09:06.315Z,81.52
2022-09-20T00:11:36.575Z,81.70
2022-09-20T00:14:08.664Z,81.68
2022-09-20T00:16:40.950Z,80.37
2022-09-20T00:19:16.098Z,79.42
2022-09-20T00:21:45.573Z,80.21
2022-09-20T00:24:13.747Z,80.34
2022-09-20T00:26:41.878Z,79.89
2022-09-20T00:29:09.960Z,80.28
2022-09-20T00:31:40.242Z,81.05
2022-09-20T00:34:26.281Z,80.97
2022-09-20T00:36:55.861Z,81.38
2022-09-20T00:39:24.204Z,81.67
2022-09-20T00:41:52.321Z,81.56
2022-09-20T00:44:45.384Z,81.38
2022-09-20T00:47:23.497Z,82.40
2022-09-20T00:49:57.309Z,83.09
2022-09-20T00:52:28.835Z,83.75
2022-09-20T00:54:58.187Z,83.54
2022-09-20T00:57:26.958Z,83.83
2022-09-20T00:59:55.997Z,83.42
2022-09-20T01:02:29.238Z,83.80
2022-09-20T01:04:59.087Z,83.91
2022-09-20T01:07:29.835Z,84.12
2022-09-20T01:09:57.904Z,84.60
2022-09-20T01:12:31.930Z,85.23
2022-09-20T01:15:01.973Z,85.78
2022-09-20T01:17:35.768Z,85.24
2022-09-20T01:20:20.216Z,85.33
2022-09-20T01:23:22.221Z,85.59
2022-09-20T01:26:22.088Z,86.14
2022-09-20T01:29:02.596Z,86.00
2022-09-20T01:31:36.575Z,86.21
2022-09-20T01:34:12.121Z,85.88
2022-09-20T01:36:50.505Z,86.24
2022-09-20T01:39:31.524Z,86.53
2022-09-20T01:42:05.898Z,85.17
2022-09-20T01:44:46.737Z,85.21
2022-09-20T01:47:32.139Z,85.54
2022-09-20T01:50:16.207Z,86.02
2022-09-20T01:53:29.372Z,85.77
2022-09-20T01:56:42.944Z,85.98
2022-09-20T01:59:43.455Z,86.69
2022-09-20T02:02:36.545Z,86.44
2022-09-20T02:05:35.209Z,86.21
2022-09-20T02:08:29.707Z,85.79
2022-09-20T02:11:16.931Z,84.99
2022-09-20T02:14:09.994Z,85.21
2022-09-20T02:16:50.577Z,84.66
2022-09-20T02:19:54.751Z,84.55
2022-09-20T02:22:45.715Z,83.25
2022-09-20T02:25:44.420Z,83.81
2022-09-20T02:28:31.894Z,83.36
2022-09-20T02:31:15.239Z,83.54
2022-09-20T02:34:13.199Z,83.54
2022-09-20T02:36:57.076Z,82.86
2022-09-20T02:39:37.560Z,83.06
2022-09-20T02:42:16.978Z,82.91
2022-09-20T02:45:01.930Z,82.93
2022-09-20T02:47:37.877Z,82.97
2022-09-20T02:50:25.974Z,83.27
2022-09-20T02:53:18.386Z,83.45
2022-09-20T02:56:00.538Z,83.48
2022-09-20T02:58:42.820Z,83.60
2022-09-20T03:01:39.586Z,82.72
2022-09-20T03:04:38.817Z,80.72
2022-09-20T03:07:24.263Z,81.04
2022-09-20T03:10:11.471Z,80.37
2022-09-20T03:13:01.787Z,80.85
2022-09-20T03:15:46.355Z,81.77
2022-09-20T03:18:21.525Z,82.26
2022-09-20T03:21:08.354Z,82.20
2022-09-20T03:23:58.521Z,82.28
2022-09-20T03:26:47.971Z,82.37
2022-09-20T03:29:36.211Z,82.83
2022-09-20T03:32:29.808Z,82.99
2022-09-20T03:35:18.489Z,83.17
2022-09-20T03:38:11.547Z,82.74
2022-09-20T03:41:13.008Z,81.53
2022-09-20T03:44:08.274Z,81.37
2022-09-20T03:46:46.401Z,80.66
2022-09-20T03:49:54.449Z,81.39
2022-09-20T03:52:52.197Z,81.43
2022-09-20T03:55:50.080Z,80.75
2022-09-20T03:58:35.885Z,81.07
2022-09-20T04:01:33.548Z,80.68
2022-09-20T04:04:12.759Z,80.41
2022-09-20T04:07:02.291Z,80.45
2022-09-20T04:09:55.824Z,80.79
2022-09-20T04:12:40.058Z,79.78
2022-09-20T04:15:28.392Z,79.26
2022-09-20T04:18:06.052Z,78.87
2022-09-20T04:20:46.111Z,78.79
2022-09-20T04:23:32.998Z,79.39
2022-09-20T04:26:04.264Z,79.15
2022-09-20T04:28:44.102Z,79.17
2022-09-20T04:31:31.609Z,80.20
2022-09-20T04:34:03.113Z,80.42
2022-09-20T04:36:56.341Z,80.71
2022-09-20T04:39:42.416Z,81.17
2022-09-20T04:43:10.069Z,79.61
2022-09-20T04:46:25.661Z,80.08
2022-09-20T04:49:43.904Z,79.24
2022-09-20T04:52:53.581Z,79.93
2022-09-20T04:55:58.844Z,79.82
2022-09-20T04:59:07.802Z,79.76
2022-09-20T05:02:24.747Z,80.10
2022-09-20T05:05:49.245Z,79.29
2022-09-20T05:12:01.706Z,78.80
2022-09-20T05:15:03.932Z,78.62
2022-09-20T05:18:05.707Z,78.89
2022-09-20T05:21:25.236Z,79.12
2022-09-20T05:24:24.968Z,77.52
2022-09-20T05:27:14.180Z,77.89
2022-09-20T05:29:53.608Z,78.23
2022-09-20T05:32:30.133Z,78.68
2022-09-20T05:35:06.889Z,76.39
2022-09-20T05:37:50.514Z,76.21
2022-09-20T05:40:30.872Z,77.03
2022-09-20T05:43:12.224Z,77.55
2022-09-20T05:46:03.530Z,77.52
2022-09-20T05:48:45.636Z,78.11
2022-09-20T05:51:31.446Z,76.77
2022-09-20T05:54:36.422Z,77.09
2022-09-20T05:57:29.057Z,77.52
2022-09-20T06:00:08.155Z,77.05
2022-09-20T06:02:53.160Z,76.60
2022-09-20T06:05:38.493Z,75.42
2022-09-20T06:08:44.325Z,75.94
2022-09-20T06:11:42.129Z,76.70
2022-09-20T06:14:27.623Z,76.44
2022-09-20T06:17:08.088Z,76.67
2022-09-20T06:19:45.806Z,75.68
2022-09-20T06:22:20.911Z,75.89
2022-09-20T06:25:00.959Z,74.94
2022-09-20T06:27:37.562Z,75.69
2022-09-20T06:30:14.671Z,76.19
2022-09-20T06:33:00.292Z,76.89
2022-09-20T06:35:39.040Z,75.91
2022-09-20T06:38:51.398Z,75.75
2022-09-20T06:41:30.556Z,76.31
2022-09-20T06:43:59.775Z,75.57
2022-09-20T06:46:29.711Z,75.86
2022-09-20T06:49:00.046Z,76.17
2022-09-20T06:51:34.830Z,75.90
2022-09-20T06:54:04.005Z,73.95
2022-09-20T06:56:36.747Z,74.57
2022-09-20T06:59:05.058Z,75.01
2022-09-20T07:01:33.164Z,73.53
2022-09-20T07:04:03.044Z,71.94
2022-09-20T07:06:31.109Z,72.57
2022-09-20T07:08:59.297Z,71.83
2022-09-20T07:11:27.864Z,72.32
2022-09-20T07:13:58.173Z,72.50
2022-09-20T07:16:27.075Z,72.48
2022-09-20T07:18:56.705Z,72.60
2022-09-20T07:21:26.191Z,72.13
2022-09-20T07:23:54.177Z,71.97
2022-09-20T07:26:25.506Z,71.36
2022-09-20T07:28:53.876Z,70.15
2022-09-20T07:31:24.770Z,69.91
2022-09-20T07:33:52.979Z,68.99
2022-09-20T07:36:21.284Z,69.18
2022-09-20T07:38:52.974Z,69.01
2022-09-20T07:41:22.830Z,69.80
2022-09-20T07:43:52.189Z,69.69
2022-09-20T07:46:22.218Z,69.58
2022-09-20T07:48:50.443Z,69.54
2022-09-20T07:51:18.432Z,69.60
2022-09-20T07:53:46.366Z,68.95
2022-09-20T07:56:18.339Z,67.78
2022-09-20T07:58:52.080Z,68.09
2022-09-20T08:01:22.171Z,67.00
2022-09-20T08:03:51.759Z,67.31
2022-09-20T08:06:21.314Z,66.84
2022-09-20T08:08:51.560Z,65.25
2022-09-20T08:11:27.784Z,65.46
2022-09-20T08:14:07.148Z,64.97
2022-09-20T08:16:41.816Z,64.75
2022-09-20T08:19:12.689Z,63.12
2022-09-20T08:21:41.039Z,62.84
2022-09-20T08:24:09.064Z,62.46
2022-09-20T08:26:38.905Z,63.65
2022-09-20T08:29:07.612Z,63.57
2022-09-20T08:31:40.318Z,65.05
2022-09-20T08:34:10.452Z,65.84
2022-09-20T08:36:45.407Z,64.90
2022-09-20T08:42:16.078Z,63.51
2022-09-20T08:45:00.065Z,63.83
2022-09-20T08:47:32.347Z,61.34
2022-09-20T08:50:16.821Z,60.23
2022-09-20T08:52:48.478Z,60.48
2022-09-20T08:55:20.597Z,58.58
2022-09-20T08:57:54.303Z,58.84
2022-09-20T09:00:26.291Z,57.87
2022-09-20T09:03:00.134Z,56.19
2022-09-20T09:05:35.740Z,56.17
2022-09-20T09:08:12.327Z,56.21
2022-09-20T09:10:43.047Z,55.75
2022-09-20T09:13:22.976Z,56.79
2022-09-20T09:15:59.726Z,57.17
2022-09-20T09:18:36.729Z,58.18
2022-09-20T09:21:08.532Z,58.39
2022-09-20T09:23:50.136Z,58.42
2022-09-20T09:26:22.445Z,57.57
2022-09-20T09:29:16.888Z,56.60
2022-09-20T09:31:46.389Z,55.11
2022-09-20T09:34:29.896Z,54.78
2022-09-20T09:36:59.149Z,55.54
2022-09-20T09:39:29.669Z,55.91
2022-09-20T09:42:01.145Z,56.70
2022-09-20T09:44:33.966Z,57.88
2022-09-20T09:47:03.106Z,58.86
2022-09-20T09:49:35.986Z,60.05
2022-09-20T09:52:14.471Z,59.46
2022-09-20T09:54:50.182Z,59.67
2022-09-20T09:57:38.217Z,57.35
2022-09-20T10:00:18.951Z,57.03
2022-09-20T10:03:22.909Z,56.13
2022-09-20T10:06:16.634Z,55.42
2022-09-20T10:09:12.982Z,52.63
2022-09-20T10:12:02.477Z,51.92
2022-09-20T10:14:55.690Z,53.86
2022-09-20T10:17:48.098Z,54.36
2022-09-20T10:20:42.390Z,55.25
2022-09-20T10:26:36.630Z,54.77
2022-09-20T10:29:26.091Z,53.44
2022-09-20T10:32:14.083Z,52.99
2022-09-20T10:35:14.010Z,53.67
2022-09-20T10:38:03.044Z,54.23
2022-09-20T10:40:58.045Z,55.21
2022-09-20T10:44:04.937Z,56.14
2022-09-20T10:46:49.902Z,55.35
2022-09-20T10:49:28.213Z,53.23
2022-09-20T10:52:28.569Z,52.82
2022-09-20T10:55:27.044Z,53.67
2022-09-20T10:58:28.214Z,55.36
2022-09-20T11:01:06.345Z,56.77
2022-09-20T11:04:45.665Z,57.57
2022-09-20T11:07:23.123Z,58.30
2022-09-20T11:10:00.505Z,59.00
2022-09-20T11:12:38.224Z,60.04
2022-09-20T11:15:20.641Z,58.82
2022-09-20T11:18:04.675Z,58.16
2022-09-20T11:20:44.175Z,56.94
2022-09-20T11:23:21.016Z,54.76
2022-09-20T11:28:30.438Z,54.15
2022-09-20T11:31:05.497Z,54.56
2022-09-20T11:33:45.528Z,56.13
2022-09-20T11:36:21.827Z,55.26
2022-09-20T11:38:58.189Z,56.05
2022-09-20T11:41:29.672Z,55.33
2022-09-20T11:44:06.899Z,56.30
2022-09-20T11:46:45.065Z,57.24
2022-09-20T11:49:21.002Z,57.55
2022-09-20T11:52:18.131Z,57.00
2022-09-20T11:55:13.008Z,55.21
2022-09-20T11:57:41.573Z,54.15
2022-09-20T12:00:11.151Z,54.00
2022-09-20T12:02:48.511Z,55.02
2022-09-20T12:05:33.588Z,53.38
2022-09-20T12:08:06.020Z,52.80
2022-09-20T12:10:40.564Z,53.31
2022-09-20T12:13:23.409Z,53.16
2022-09-20T12:16:04.527Z,51.39
2022-09-20T12:19:02.671Z,49.65
2022-09-20T12:21:30.814Z,51.23
2022-09-20T12:24:21.013Z,52.16
2022-09-20T12:26:53.594Z,54.09
2022-09-20T12:30:08.521Z,54.59
2022-09-20T12:33:01.076Z,54.86
2022-09-20T12:36:18.129Z,53.29
2022-09-20T12:39:21.664Z,53.61
2022-09-20T12:41:57.680Z,54.88
2022-09-20T12:44:36.030Z,55.97
2022-09-20T12:47:15.844Z,54.06
2022-09-20T12:50:09.527Z,52.49
2022-09-20T12:52:53.445Z,51.91
2022-09-20T12:55:40.029Z,50.52
2022-09-20T12:58:26.112Z,49.46
2022-09-20T13:01:28.418Z,49.17
2022-09-20T13:04:42.120Z,47.98
2022-09-20T13:07:54.487Z,49.47
2022-09-20T13:10:30.240Z,50.67
2022-09-20T13:13:06.034Z,51.26
2022-09-20T13:15:37.045Z,51.95
2022-09-20T13:18:08.183Z,49.77
2022-09-20T13:20:36.890Z,48.79
2022-09-20T13:23:06.390Z,48.91
2022-09-20T13:25:35.512Z,48.86
2022-09-20T13:28:11.039Z,48.10
2022-09-20T13:30:41.735Z,46.36
2022-09-20T13:33:24.737Z,47.07
2022-09-20T13:35:58.068Z,46.50
2022-09-20T13:38:32.017Z,45.67
2022-09-20T13:41:09.037Z,45.88
2022-09-20T13:43:42.341Z,46.53
2022-09-20T13:46:15.940Z,46.94
2022-09-20T13:48:47.179Z,48.15
2022-09-20T13:51:20.787Z,49.69
2022-09-20T13:53:48.782Z,50.83
2022-09-20T13:56:25.505Z,51.70
2022-09-20T13:58:54.498Z,51.05
2022-09-20T14:01:32.286Z,51.23
2022-09-20T14:04:08.309Z,52.42
2022-09-20T14:06:37.424Z,52.63
2022-09-20T14:09:11.270Z,52.54
2022-09-20T14:11:41.371Z,52.38
2022-09-20T14:14:17.529Z,51.32
2022-09-20T14:16:51.260Z,51.02
2022-09-20T14:19:23.960Z,49.39
2022-09-20T14:21:52.315Z,49.67
2022-09-20T14:24:32.921Z,49.48
2022-09-20T14:27:06.440Z,48.76
2022-09-20T14:29:43.991Z,49.19
2022-09-20T14:32:48.001Z,49.78
2022-09-20T14:35:20.317Z,49.50
2022-09-20T14:37:52.066Z,49.55
2022-09-20T14:40:27.132Z,49.69
2022-09-20T14:42:58.861Z,49.45
2022-09-20T14:45:33.779Z,48.83
2022-09-20T14:48:10.760Z,48.76
2022-09-20T14:50:42.097Z,47.46
2022-09-20T14:53:29.571Z,46.32
2022-09-20T14:56:11.343Z,45.62
2022-09-20T14:59:24.601Z,46.26
2022-09-20T15:02:03.964Z,47.17
2022-09-20T15:04:35.655Z,47.17
2022-09-20T15:07:06.965Z,48.19
2022-09-20T15:09:36.137Z,46.77
2022-09-20T15:12:07.076Z,47.61
2022-09-20T15:14:37.708Z,46.24
2022-09-20T15:17:07.323Z,47.62
2022-09-20T15:19:36.619Z,48.39
2022-09-20T15:22:04.967Z,48.74
2022-09-20T15:24:32.977Z,49.42
2022-09-20T15:27:00.978Z,50.13
2022-09-20T15:29:29.160Z,51.37
2022-09-20T15:31:57.441Z,51.67
2022-09-20T15:34:25.546Z,51.87
2022-09-20T15:36:55.695Z,52.68
2022-09-20T15:39:24.608Z,52.16
2022-09-20T15:41:53.536Z,52.37
2022-09-20T15:44:22.046Z,52.38
2022-09-20T15:46:51.576Z,52.49
2022-09-20T15:49:20.742Z,53.17
2022-09-20T15:51:48.819Z,53.46
2022-09-20T15:54:18.197Z,53.31
2022-09-20T15:56:46.154Z,54.10
2022-09-20T15:59:15.325Z,54.13
2022-09-20T16:01:48.100Z,54.76
2022-09-20T16:04:19.377Z,55.35
2022-09-20T16:06:50.330Z,55.71
2022-09-20T16:09:20.500Z,55.34
2022-09-20T16:11:49.534Z,55.10
2022-09-20T16:14:17.617Z,54.79
2022-09-20T16:16:45.858Z,54.60
2022-09-20T16:19:20.340Z,55.27
2022-09-20T16:21:55.027Z,56.04
2022-09-20T16:24:28.018Z,54.69
2022-09-20T16:26:56.086Z,54.83
2022-09-20T16:29:25.616Z,54.17
2022-09-20T16:31:55.335Z,54.91
2022-09-20T16:34:30.526Z,52.44
2022-09-20T16:37:01.672Z,52.21
2022-09-20T16:39:32.536Z,52.92
2022-09-20T16:42:04.389Z,52.54
2022-09-20T16:44:34.637Z,51.46
2022-09-20T16:47:02.952Z,51.98
2022-09-20T16:49:30.889Z,51.96
2022-09-20T16:51:58.887Z,52.18
2022-09-20T16:54:31.579Z,53.56
2022-09-20T16:57:01.969Z,54.10
2022-09-20T16:59:30.088Z,55.26
2022-09-20T17:01:58.674Z,56.18
2022-09-20T17:04:26.747Z,57.99
2022-09-20T17:06:55.586Z,58.38
2022-09-20T17:09:23.535Z,58.54
2022-09-20T17:11:52.143Z,59.26
2022-09-20T17:14:22.158Z,60.49
2022-09-20T17:16:50.950Z,61.14
2022-09-20T17:19:21.627Z,61.50
2022-09-20T17:21:51.877Z,62.44
2022-09-20T17:24:21.782Z,62.29
2022-09-20T17:26:51.689Z,62.94
2022-09-20T17:29:21.977Z,63.85
2022-09-20T17:31:55.490Z,64.72
2022-09-20T17:34:25.270Z,64.54
2022-09-20T17:36:55.294Z,65.18
2022-09-20T17:39:24.087Z,65.15
2022-09-20T17:41:52.520Z,64.89
2022-09-20T17:44:21.985Z,65.79
2022-09-20T17:46:53.794Z,66.47
2022-09-20T17:49:23.964Z,67.00
2022-09-20T17:51:54.798Z,67.91
2022-09-20T17:54:24.481Z,67.33
2022-09-20T17:56:55.711Z,66.95
2022-09-20T17:59:25.716Z,67.45
2022-09-20T18:01:55.576Z,68.12
2022-09-20T18:04:24.415Z,68.42
2022-09-20T18:06:54.558Z,67.97
2022-09-20T18:09:25.284Z,68.20
2022-09-20T18:11:55.817Z,67.14
2022-09-20T18:14:27.643Z,66.29
2022-09-20T18:17:00.696Z,65.89
2022-09-20T18:19:32.978Z,64.20
2022-09-20T18:22:02.147Z,63.93
2022-09-20T18:24:32.082Z,64.43
2022-09-20T18:27:00.696Z,64.29
2022-09-20T18:29:36.406Z,63.78
2022-09-20T18:32:04.551Z,64.37
2022-09-20T18:34:34.179Z,65.08
2022-09-20T18:37:03.787Z,65.81
2022-09-20T18:39:34.794Z,66.37
2022-09-20T18:42:03.280Z,66.75
2022-09-20T18:44:33.524Z,66.30
2022-09-20T18:47:03.691Z,65.74
2022-09-20T18:49:31.856Z,66.52
2022-09-20T18:51:59.927Z,67.39
2022-09-20T18:54:32.100Z,67.96
2022-09-20T18:57:01.405Z,67.69
2022-09-20T18:59:30.144Z,68.36
2022-09-20T19:02:36.291Z,69.11
2022-09-20T19:05:18.639Z,69.81
2022-09-20T19:08:22.685Z,70.90
2022-09-20T19:10:54.754Z,71.73
2022-09-20T19:13:42.088Z,72.11
2022-09-20T19:16:20.468Z,72.02
2022-09-20T19:19:22.476Z,71.91
2022-09-20T19:22:01.738Z,72.46
2022-09-20T19:24:51.477Z,72.32
2022-09-20T19:27:20.011Z,71.73
2022-09-20T19:29:48.772Z,72.03
2022-09-20T19:32:21.518Z,72.70
2022-09-20T19:34:54.980Z,73.27
2022-09-20T19:37:34.311Z,73.96
2022-09-20T19:40:23.166Z,74.00
2022-09-20T19:43:10.829Z,72.70
2022-09-20T19:45:49.917Z,72.00
2022-09-20T19:48:28.889Z,72.87
2022-09-20T19:51:03.301Z,72.99
2022-09-20T19:53:32.400Z,73.20
2022-09-20T19:56:09.022Z,73.24
2022-09-20T19:58:37.836Z,72.96
2022-09-20T20:01:06.694Z,73.66
2022-09-20T20:03:36.208Z,74.14
2022-09-20T20:06:16.218Z,74.54
2022-09-20T20:08:54.944Z,74.73
2022-09-20T20:11:37.149Z,75.21
2022-09-20T20:14:21.124Z,75.67
2022-09-20T20:17:04.593Z,76.21
2022-09-20T20:20:06.800Z,76.35
2022-09-20T20:23:07.355Z,76.95
2022-09-20T20:25:45.285Z,76.67
2022-09-20T20:28:13.350Z,76.78
2022-09-20T20:30:41.378Z,76.89
2022-09-20T20:33:15.830Z,76.55
2022-09-20T20:35:43.830Z,75.58
2022-09-20T20:38:13.144Z,75.79
2022-09-20T20:40:41.291Z,74.98
2022-09-20T20:43:09.820Z,75.26
2022-09-20T20:45:38.651Z,75.75
2022-09-20T20:48:07.000Z,75.59
2022-09-20T20:50:35.380Z,74.97
2022-09-20T20:53:03.371Z,75.09
2022-09-20T20:55:32.742Z,75.07
2022-09-20T20:58:01.117Z,74.68
2022-09-20T21:00:29.970Z,74.88
2022-09-20T21:02:59.929Z,75.03
2022-09-20T21:05:28.411Z,74.36
2022-09-20T21:07:57.853Z,73.15
2022-09-20T21:10:26.207Z,72.67
2022-09-20T21:12:56.597Z,72.91
2022-09-20T21:15:24.601Z,73.06
2022-09-20T21:17:53.506Z,72.46
2022-09-20T21:20:22.441Z,72.15
2022-09-20T21:22:50.470Z,72.18
2022-09-20T21:25:18.542Z,71.97
2022-09-20T21:27:46.518Z,71.57
2022-09-20T21:30:16.223Z,71.44
2022-09-20T21:32:44.182Z,71.50
2022-09-20T21:35:12.266Z,71.36
2022-09-20T21:37:41.215Z,71.61
2022-09-20T21:40:10.522Z,71.49
2022-09-20T21:42:38.534Z,71.67
2022-09-20T21:45:11.004Z,72.21
2022-09-20T21:47:40.348Z,72.35
2022-09-20T21:50:10.034Z,72.32
2022-09-20T21:52:38.172Z,71.82
2022-09-20T21:55:10.668Z,71.68
2022-09-20T21:57:38.953Z,71.07
2022-09-20T22:00:09.827Z,70.38
2022-09-20T22:02:37.827Z,69.95
2022-09-20T22:05:08.111Z,69.80
2022-09-20T22:07:36.088Z,70.27
2022-09-20T22:10:04.376Z,69.84
2022-09-20T22:12:32.356Z,70.59
2022-09-20T22:15:00.345Z,70.73
2022-09-20T22:17:29.455Z,71.06
2022-09-20T22:19:58.149Z,71.18
2022-09-20T22:22:28.519Z,71.64
2022-09-20T22:24:56.504Z,71.90
2022-09-20T22:27:24.515Z,72.01
2022-09-20T22:29:52.480Z,72.15
2022-09-20T22:32:20.757Z,72.59
2022-09-20T22:34:48.743Z,72.76
2022-09-20T22:37:17.435Z,72.96
2022-09-20T22:39:46.766Z,72.49
2022-09-20T22:42:14.769Z,72.18
2022-09-20T22:44:42.763Z,71.88
2022-09-20T22:47:10.874Z,72.32
2022-09-20T22:49:38.874Z,71.92
2022-09-20T22:52:06.894Z,72.11
2022-09-20T22:54:35.533Z,72.55
2022-09-20T22:57:05.723Z,72.62
2022-09-20T22:59:33.711Z,72.52
2022-09-20T23:02:01.874Z,73.00
2022-09-20T23:04:29.864Z,72.97
2022-09-20T23:06:57.824Z,73.43
2022-09-20T23:09:28.329Z,73.41
2022-09-20T23:11:56.638Z,73.76
2022-09-20T23:14:25.927Z,74.39
2022-09-20T23:16:53.985Z,74.83
2022-09-20T23:19:22.076Z,75.22
2022-09-20T23:21:50.097Z,75.49
2022-09-20T23:24:18.061Z,75.93
2022-09-20T23:26:46.636Z,76.51
2022-09-20T23:29:17.059Z,75.55
2022-09-20T23:31:47.878Z,75.80
2022-09-20T23:34:18.181Z,75.96
2022-09-20T23:36:46.747Z,76.44
2022-09-20T23:39:15.371Z,76.65
2022-09-20T23:41:48.382Z,76.64
2022-09-20T23:44:18.735Z,77.50
2022-09-20T23:46:48.034Z,77.24
2022-09-20T23:49:16.157Z,77.92
2022-09-20T23:51:44.149Z,78.02
2022-09-20T23:54:12.103Z,78.42
2022-09-20T23:56:40.230Z,78.92
2022-09-20T23:59:08.190Z,79.15
